Time;durP1;ratioP1;P1;durP2;ratioP2;P2;SDS_P1;SDS_P2;PMS_P1;PMS_P2;Temp;Humidity;BMP_temperature;BMP_pressure;BME280_temperature;BME280_humidity;BME280_pressure;Samples;Min_cycle;Max_cycle;Signal;HPM_P1;HPM_P2
2024/02/20 00:00:57;;;;;;;26.92;4.07;;;;;;;;;;5073958;28;20021;-28
2024/02/20 00:03:22;;;;;;;34.17;5.00;;;;;;;;;;5072964;28;20023;-28
2024/02/20 00:05:47;;;;;;;34.17;5.30;;;;;;;;;;5073881;28;20255;-28
2024/02/20 00:08:12;;;;;;;29.43;4.47;;;;;;;;;;5073896;28;20359;-28
2024/02/20 00:10:38;;;;;;;27.98;4.80;;;;;;;;;;5074111;28;20714;-28
2024/02/20 00:13:03;;;;;;;29.48;4.40;;;;;;;;;;5073974;28;20020;-28
2024/02/20 00:15:28;;;;;;;35.78;6.10;;;;;;;;;;5074315;28;20017;-28
2024/02/20 00:17:53;;;;;;;32.10;4.80;;;;;;;;;;5074019;28;20060;-28
2024/02/20 00:20:19;;;;;;;34.88;5.03;;;;;;;;;;5073632;28;20360;-28
2024/02/20 00:22:44;;;;;;;32.58;4.63;;;;;;;;;;5074167;28;20101;-28
2024/02/20 00:25:09;;;;;;;24.37;4.07;;;;;;;;;;5073690;28;20034;-33
2024/02/20 00:27:35;;;;;;;36.85;4.55;;;;;;;;;;5074113;28;20274;-28
2024/02/20 00:30:00;;;;;;;36.50;4.78;;;;;;;;;;5072223;28;20069;-28
2024/02/20 00:32:25;;;;;;;44.63;5.35;;;;;;;;;;5073863;28;20363;-28
2024/02/20 00:34:50;;;;;;;25.27;4.03;;;;;;;;;;5073589;28;20074;-28
2024/02/20 00:37:15;;;;;;;30.30;4.63;;;;;;;;;;5073317;28;20250;-28
2024/02/20 00:39:41;;;;;;;33.00;4.35;;;;;;;;;;5073491;28;20450;-28
2024/02/20 00:42:07;;;;;;;25.42;3.70;;;;;;;;;;5074021;28;20043;-28
2024/02/20 00:44:32;;;;;;;27.17;4.05;;;;;;;;;;5073418;28;20456;-28
2024/02/20 00:46:57;;;;;;;32.70;4.55;;;;;;;;;;5073952;28;20059;-27
2024/02/20 00:49:23;;;;;;;28.93;4.50;;;;;;;;;;5073640;28;20074;-28
2024/02/20 00:51:48;;;;;;;32.08;4.78;;;;;;;;;;5074460;28;20632;-28
2024/02/20 00:54:14;;;;;;;25.80;4.20;;;;;;;;;;5073291;28;20016;-28
2024/02/20 00:56:39;;;;;;;29.80;5.72;;;;;;;;;;5073580;28;20025;-29
2024/02/20 00:59:04;;;;;;;32.37;4.47;;;;;;;;;;5073842;28;20017;-28
2024/02/20 01:01:30;;;;;;;36.95;4.18;;;;;;;;;;5073478;28;20605;-29
2024/02/20 01:03:55;;;;;;;27.63;3.90;;;;;;;;;;5073528;28;20491;-28
2024/02/20 01:06:20;;;;;;;29.20;3.60;;;;;;;;;;5073376;28;20418;-35
2024/02/20 01:08:45;;;;;;;30.37;4.30;;;;;;;;;;5073029;28;20044;-28
2024/02/20 01:11:10;;;;;;;34.93;4.10;;;;;;;;;;5072649;28;20403;-28
2024/02/20 01:13:36;;;;;;;37.17;3.80;;;;;;;;;;5072567;28;20259;-28
2024/02/20 01:16:01;;;;;;;32.00;4.30;;;;;;;;;;5072892;28;20263;-28
2024/02/20 01:18:26;;;;;;;25.25;4.43;;;;;;;;;;5071876;28;20032;-28
2024/02/20 01:20:52;;;;;;;32.07;3.77;;;;;;;;;;5072425;28;20063;-28
2024/02/20 01:23:17;;;;;;;25.25;3.75;;;;;;;;;;5072495;28;20269;-28
2024/02/20 01:25:43;;;;;;;26.13;4.18;;;;;;;;;;5073052;28;20021;-28
2024/02/20 01:28:08;;;;;;;33.33;3.58;;;;;;;;;;5073072;28;20092;-28
2024/02/20 01:30:34;;;;;;;25.75;3.40;;;;;;;;;;5072931;28;20118;-29
2024/02/20 01:33:00;;;;;;;29.92;3.22;;;;;;;;;;5073515;28;20012;-28
2024/02/20 01:35:26;;;;;;;26.58;3.55;;;;;;;;;;5072921;28;20024;-29
2024/02/20 01:37:52;;;;;;;22.58;3.30;;;;;;;;;;5072865;28;20020;-28
2024/02/20 01:40:18;;;;;;;24.17;3.08;;;;;;;;;;5073221;28;20052;-29
2024/02/20 01:42:54;;;;;;;25.27;3.38;;;;;;;;;;5073151;28;20021;-28
2024/02/20 01:45:19;;;;;;;22.17;2.97;;;;;;;;;;5073110;28;20404;-28
2024/02/20 01:47:44;;;;;;;24.67;3.30;;;;;;;;;;5072733;28;20162;-29
2024/02/20 01:50:10;;;;;;;21.70;3.30;;;;;;;;;;5075732;28;20259;-28
2024/02/20 01:52:35;;;;;;;22.00;3.55;;;;;;;;;;5076560;28;20021;-28
2024/02/20 01:55:01;;;;;;;27.77;3.58;;;;;;;;;;5076741;28;20024;-28
2024/02/20 01:57:26;;;;;;;23.08;3.72;;;;;;;;;;5076606;28;20100;-28
2024/02/20 01:59:53;;;;;;;24.92;3.83;;;;;;;;;;5076605;28;20056;-28
2024/02/20 02:02:20;;;;;;;27.25;4.43;;;;;;;;;;5076828;28;20039;-28
2024/02/20 02:04:45;;;;;;;25.02;3.95;;;;;;;;;;5076582;28;20521;-28
2024/02/20 02:07:10;;;;;;;24.92;3.42;;;;;;;;;;5076127;28;20056;-28
2024/02/20 02:09:35;;;;;;;22.83;3.33;;;;;;;;;;5076016;28;20049;-28
2024/02/20 02:12:00;;;;;;;26.57;3.33;;;;;;;;;;5076317;28;20255;-28
2024/02/20 02:14:25;;;;;;;21.20;2.78;;;;;;;;;;5076350;28;20317;-28
2024/02/20 02:16:51;;;;;;;28.80;3.70;;;;;;;;;;5076334;28;20104;-29
2024/02/20 02:19:16;;;;;;;31.07;3.27;;;;;;;;;;5076541;28;20025;-28
2024/02/20 02:21:41;;;;;;;32.58;3.53;;;;;;;;;;5075933;28;20247;-29
2024/02/20 02:24:07;;;;;;;41.08;3.30;;;;;;;;;;5075975;28;20023;-29
2024/02/20 02:26:33;;;;;;;23.35;3.25;;;;;;;;;;5075780;28;20027;-29
2024/02/20 02:28:58;;;;;;;27.63;3.70;;;;;;;;;;5075763;28;20009;-28
2024/02/20 02:31:23;;;;;;;24.25;3.28;;;;;;;;;;5076085;28;20021;-28
2024/02/20 02:33:48;;;;;;;26.50;2.87;;;;;;;;;;5075771;28;20027;-29
2024/02/20 02:36:14;;;;;;;22.95;3.08;;;;;;;;;;5076048;28;20346;-28
2024/02/20 02:38:39;;;;;;;26.80;3.80;;;;;;;;;;5075633;28;20021;-28
2024/02/20 02:41:05;;;;;;;19.23;2.67;;;;;;;;;;5075894;28;20047;-29
2024/02/20 02:43:30;;;;;;;25.63;3.58;;;;;;;;;;5075510;28;20052;-29
2024/02/20 02:45:55;;;;;;;30.20;3.78;;;;;;;;;;5074129;28;20119;-28
2024/02/20 02:48:20;;;;;;;20.65;3.13;;;;;;;;;;5076541;28;20066;-29
2024/02/20 02:50:46;;;;;;;29.13;3.37;;;;;;;;;;5075417;28;20074;-28
2024/02/20 02:53:11;;;;;;;25.50;4.07;;;;;;;;;;5075950;28;20266;-28
2024/02/20 02:55:36;;;;;;;32.80;3.73;;;;;;;;;;5075292;28;20012;-28
2024/02/20 02:58:02;;;;;;;28.25;3.88;;;;;;;;;;5075264;28;20358;-29
2024/02/20 03:00:27;;;;;;;32.05;3.80;;;;;;;;;;5075354;28;20099;-28
2024/02/20 03:02:52;;;;;;;25.13;4.28;;;;;;;;;;5075199;28;20436;-29
2024/02/20 03:05:18;;;;;;;30.97;4.27;;;;;;;;;;5075673;28;20017;-28
2024/02/20 03:07:44;;;;;;;31.05;4.32;;;;;;;;;;5075013;28;20291;-28
2024/02/20 03:10:11;;;;;;;31.83;3.47;;;;;;;;;;5075315;28;20021;-28
2024/02/20 03:12:36;;;;;;;29.20;3.88;;;;;;;;;;5073881;28;20020;-28
2024/02/20 03:15:02;;;;;;;34.90;3.58;;;;;;;;;;5074707;28;20017;-28
2024/02/20 03:17:27;;;;;;;28.02;3.53;;;;;;;;;;5074819;28;20027;-27
2024/02/20 03:19:53;;;;;;;18.97;2.90;;;;;;;;;;5075429;28;20020;-28
2024/02/20 03:22:18;;;;;;;32.60;4.07;;;;;;;;;;5075030;28;20262;-28
2024/02/20 03:24:45;;;;;;;24.77;2.95;;;;;;;;;;5074682;28;20263;-29
2024/02/20 03:27:10;;;;;;;29.63;4.32;;;;;;;;;;5075401;28;20408;-28
2024/02/20 03:29:35;;;;;;;28.30;3.63;;;;;;;;;;5074916;28;20044;-28
2024/02/20 03:32:01;;;;;;;28.20;4.20;;;;;;;;;;5074542;28;20020;-28
2024/02/20 03:34:26;;;;;;;29.47;4.13;;;;;;;;;;5075066;28;20261;-27
2024/02/20 03:36:51;;;;;;;32.10;3.90;;;;;;;;;;5074450;28;20791;-33
2024/02/20 03:39:16;;;;;;;25.57;4.03;;;;;;;;;;5074434;28;20266;-28
2024/02/20 03:41:41;;;;;;;36.93;3.90;;;;;;;;;;5074329;28;20290;-32
2024/02/20 03:44:06;;;;;;;32.78;4.05;;;;;;;;;;5074842;28;20255;-29
2024/02/20 03:46:32;;;;;;;32.45;4.38;;;;;;;;;;5074714;28;20020;-28
2024/02/20 03:48:57;;;;;;;22.83;3.65;;;;;;;;;;5074249;28;20012;-32
2024/02/20 03:51:22;;;;;;;26.48;3.67;;;;;;;;;;5074202;28;20023;-28
2024/02/20 03:53:47;;;;;;;28.98;4.30;;;;;;;;;;5074042;28;20021;-28
2024/02/20 03:56:13;;;;;;;28.33;3.70;;;;;;;;;;5074154;28;20024;-28
2024/02/20 03:58:38;;;;;;;22.20;3.83;;;;;;;;;;5074801;28;20780;-28
2024/02/20 04:01:03;;;;;;;26.20;3.75;;;;;;;;;;5074241;28;20028;-28
2024/02/20 04:03:28;;;;;;;32.22;4.28;;;;;;;;;;5073953;28;20028;-28
2024/02/20 04:05:54;;;;;;;29.37;4.40;;;;;;;;;;5074411;28;20017;-28
2024/02/20 04:08:19;;;;;;;23.67;3.92;;;;;;;;;;5073834;28;20370;-27
2024/02/20 04:10:44;;;;;;;24.60;3.35;;;;;;;;;;5074194;28;20020;-28
2024/02/20 04:13:11;;;;;;;25.73;4.28;;;;;;;;;;5073465;28;20540;-32
2024/02/20 04:15:37;;;;;;;23.95;3.55;;;;;;;;;;5073739;28;20049;-28
2024/02/20 04:18:02;;;;;;;25.17;3.50;;;;;;;;;;5074812;28;20447;-28
2024/02/20 04:20:27;;;;;;;37.85;3.83;;;;;;;;;;5073781;28;20020;-28
2024/02/20 04:22:52;;;;;;;28.73;3.75;;;;;;;;;;5073642;28;20024;-29
2024/02/20 04:25:18;;;;;;;33.33;3.47;;;;;;;;;;5073573;28;20021;-28
2024/02/20 04:27:44;;;;;;;33.65;3.78;;;;;;;;;;5073808;28;20289;-28
2024/02/20 04:30:10;;;;;;;24.90;3.63;;;;;;;;;;5073855;28;20566;-29
2024/02/20 04:32:36;;;;;;;29.95;3.85;;;;;;;;;;5074238;28;20044;-29
2024/02/20 04:35:01;;;;;;;27.90;3.33;;;;;;;;;;5073834;28;20020;-29
2024/02/20 04:37:26;;;;;;;29.50;3.77;;;;;;;;;;5074084;28;20021;-30
2024/02/20 04:39:52;;;;;;;27.50;4.40;;;;;;;;;;5073461;28;20731;-28
2024/02/20 04:42:21;;;;;;;27.90;3.50;;;;;;;;;;5073932;28;20031;-30
2024/02/20 04:44:46;;;;;;;29.40;3.92;;;;;;;;;;5073326;28;20032;-28
2024/02/20 04:47:11;;;;;;;24.17;4.07;;;;;;;;;;5073276;28;20108;-28
2024/02/20 04:49:36;;;;;;;22.20;3.83;;;;;;;;;;5073618;28;20262;-29
2024/02/20 04:52:01;;;;;;;31.37;4.03;;;;;;;;;;5073874;28;20287;-30
2024/02/20 04:54:27;;;;;;;29.75;4.47;;;;;;;;;;5073476;28;20269;-28
2024/02/20 04:56:52;;;;;;;30.73;4.70;;;;;;;;;;5073261;28;20066;-28
2024/02/20 04:59:19;;;;;;;24.10;4.13;;;;;;;;;;5073258;28;20251;-27
2024/02/20 05:01:44;;;;;;;27.77;3.78;;;;;;;;;;5073445;28;20024;-27
2024/02/20 05:04:10;;;;;;;32.00;4.45;;;;;;;;;;5073741;28;20016;-27
2024/02/20 05:06:35;;;;;;;27.95;3.47;;;;;;;;;;5073121;28;20034;-28
2024/02/20 05:09:00;;;;;;;21.57;3.23;;;;;;;;;;5073218;28;20189;-27
2024/02/20 05:11:25;;;;;;;30.53;3.90;;;;;;;;;;5071762;28;20262;-27
2024/02/20 05:13:51;;;;;;;28.17;3.27;;;;;;;;;;5073703;28;20247;-27
2024/02/20 05:16:16;;;;;;;28.27;3.53;;;;;;;;;;5073068;28;20259;-27
2024/02/20 05:18:41;;;;;;;32.33;4.03;;;;;;;;;;5073078;28;20371;-29
2024/02/20 05:21:07;;;;;;;30.43;4.30;;;;;;;;;;5073559;28;20353;-28
2024/02/20 05:23:32;;;;;;;28.80;4.30;;;;;;;;;;5073587;28;20634;-28
2024/02/20 05:25:58;;;;;;;35.25;3.78;;;;;;;;;;5076864;28;20021;-28
2024/02/20 05:28:23;;;;;;;33.97;3.60;;;;;;;;;;5077219;28;20070;-27
2024/02/20 05:30:48;;;;;;;30.25;3.90;;;;;;;;;;5077161;28;20015;-27
2024/02/20 05:33:15;;;;;;;23.70;3.33;;;;;;;;;;5076908;28;20024;-28
2024/02/20 05:35:42;;;;;;;29.50;4.20;;;;;;;;;;5076789;28;20066;-28
2024/02/20 05:38:08;;;;;;;30.38;4.00;;;;;;;;;;5077050;28;20405;-28
2024/02/20 05:40:33;;;;;;;32.83;3.90;;;;;;;;;;5076641;28;20017;-28
2024/02/20 05:42:58;;;;;;;26.47;4.13;;;;;;;;;;5077188;28;20112;-28
2024/02/20 05:45:23;;;;;;;17.33;3.20;;;;;;;;;;5076887;28;20267;-28
2024/02/20 05:47:48;;;;;;;29.20;4.10;;;;;;;;;;5077058;28;20270;-29
2024/02/20 05:50:14;;;;;;;29.70;3.67;;;;;;;;;;5076568;28;20246;-28
2024/02/20 05:52:39;;;;;;;24.43;3.30;;;;;;;;;;5076806;28;20266;-28
2024/02/20 05:55:06;;;;;;;23.67;3.65;;;;;;;;;;5076456;28;20347;-28
2024/02/20 05:57:31;;;;;;;25.23;3.78;;;;;;;;;;5077449;28;20360;-29
2024/02/20 05:59:56;;;;;;;28.50;4.10;;;;;;;;;;5076645;28;20017;-28
2024/02/20 06:02:21;;;;;;;27.90;4.00;;;;;;;;;;5075309;28;20016;-28
2024/02/20 06:04:47;;;;;;;22.45;4.30;;;;;;;;;;5076214;28;20052;-27
2024/02/20 06:07:12;;;;;;;30.02;4.45;;;;;;;;;;5076387;28;20112;-28
2024/02/20 06:09:37;;;;;;;27.38;4.13;;;;;;;;;;5076060;28;20032;-28
2024/02/20 06:12:04;;;;;;;21.45;4.07;;;;;;;;;;5076315;28;20363;-27
2024/02/20 06:14:30;;;;;;;29.85;4.38;;;;;;;;;;5076372;28;20020;-28
2024/02/20 06:16:55;;;;;;;18.70;3.60;;;;;;;;;;5076043;28;20017;-27
2024/02/20 06:19:20;;;;;;;30.83;3.83;;;;;;;;;;5076558;28;20279;-28
2024/02/20 06:21:46;;;;;;;33.17;4.50;;;;;;;;;;5076251;28;20262;-30
2024/02/20 06:24:11;;;;;;;25.52;4.05;;;;;;;;;;5076163;28;20025;-29
2024/02/20 06:26:36;;;;;;;26.73;4.03;;;;;;;;;;5075848;28;20017;-29
2024/02/20 06:29:02;;;;;;;28.20;4.07;;;;;;;;;;5076145;28;20341;-29
2024/02/20 06:31:27;;;;;;;27.65;4.55;;;;;;;;;;5076083;28;20036;-27
2024/02/20 06:33:52;;;;;;;36.17;4.38;;;;;;;;;;5075701;28;20023;-27
2024/02/20 06:36:17;;;;;;;22.97;3.97;;;;;;;;;;5075860;28;20023;-27
2024/02/20 06:38:42;;;;;;;30.48;4.35;;;;;;;;;;5076163;28;20277;-28
2024/02/20 06:41:08;;;;;;;29.23;5.20;;;;;;;;;;5075862;28;20529;-28
2024/02/20 06:43:36;;;;;;;26.55;4.10;;;;;;;;;;5075808;28;20029;-28
2024/02/20 06:46:02;;;;;;;20.40;4.00;;;;;;;;;;5075712;28;20017;-28
2024/02/20 06:48:27;;;;;;;24.85;3.95;;;;;;;;;;5075681;28;20456;-27
2024/02/20 06:50:52;;;;;;;39.38;4.60;;;;;;;;;;5075474;28;20028;-27
2024/02/20 06:53:18;;;;;;;31.23;4.43;;;;;;;;;;5075688;28;20467;-28
2024/02/20 06:55:43;;;;;;;34.60;4.70;;;;;;;;;;5075341;28;20021;-27
2024/02/20 06:58:08;;;;;;;30.57;4.30;;;;;;;;;;5075243;28;20028;-28
2024/02/20 07:00:37;;;;;;;38.77;5.17;;;;;;;;;;5075259;28;20662;-29
2024/02/20 07:03:02;;;;;;;28.13;4.22;;;;;;;;;;5075405;28;20342;-27
2024/02/20 07:05:27;;;;;;;36.05;4.47;;;;;;;;;;5075722;28;20056;-28
2024/02/20 07:07:52;;;;;;;25.50;3.90;;;;;;;;;;5075034;28;20044;-28
2024/02/20 07:10:18;;;;;;;30.52;4.10;;;;;;;;;;5075308;28;20262;-28
2024/02/20 07:12:44;;;;;;;29.33;4.47;;;;;;;;;;5075186;28;20035;-27
2024/02/20 07:15:10;;;;;;;26.20;3.85;;;;;;;;;;5074869;28;20507;-27
2024/02/20 07:17:35;;;;;;;24.58;4.68;;;;;;;;;;5074842;28;20021;-28
2024/02/20 07:20:00;;;;;;;22.70;4.20;;;;;;;;;;5074752;28;20361;-28
2024/02/20 07:22:26;;;;;;;27.08;4.60;;;;;;;;;;5075302;28;20119;-27
2024/02/20 07:24:52;;;;;;;20.48;4.20;;;;;;;;;;5073277;28;20042;-27
2024/02/20 07:27:17;;;;;;;25.23;4.20;;;;;;;;;;5073702;28;20050;-27
2024/02/20 07:29:43;;;;;;;31.83;4.33;;;;;;;;;;5073721;28;20019;-27
2024/02/20 07:32:11;;;;;;;30.77;4.32;;;;;;;;;;5072463;28;20263;-28
2024/02/20 07:34:38;;;;;;;28.85;4.70;;;;;;;;;;5072572;28;20031;-28
2024/02/20 07:37:03;;;;;;;27.35;4.95;;;;;;;;;;5073793;28;20025;-28
2024/02/20 07:39:28;;;;;;;33.20;5.13;;;;;;;;;;5073947;28;20027;-28
2024/02/20 07:41:54;;;;;;;36.03;5.17;;;;;;;;;;5073965;28;20027;-28
2024/02/20 07:44:19;;;;;;;28.77;4.13;;;;;;;;;;5074220;28;20259;-29
2024/02/20 07:46:47;;;;;;;24.75;4.03;;;;;;;;;;5073456;28;20281;-27
2024/02/20 07:49:12;;;;;;;25.55;4.40;;;;;;;;;;5074250;28;20017;-27
2024/02/20 07:51:37;;;;;;;29.52;4.47;;;;;;;;;;5074097;28;20070;-27
2024/02/20 07:54:02;;;;;;;22.55;3.70;;;;;;;;;;5075163;28;20012;-27
2024/02/20 07:56:31;;;;;;;24.38;4.55;;;;;;;;;;5074286;28;20478;-27
2024/02/20 07:58:56;;;;;;;33.67;5.00;;;;;;;;;;5074129;28;20095;-28
2024/02/20 08:01:22;;;;;;;21.63;4.45;;;;;;;;;;5073941;28;20055;-28
2024/02/20 08:03:48;;;;;;;23.52;4.10;;;;;;;;;;5073821;28;20020;-28
2024/02/20 08:06:14;;;;;;;25.67;4.20;;;;;;;;;;5073831;28;20021;-28
2024/02/20 08:08:39;;;;;;;22.50;4.30;;;;;;;;;;5073834;28;20523;-28
2024/02/20 08:11:05;;;;;;;26.88;4.88;;;;;;;;;;5074042;28;20013;-27
2024/02/20 08:13:30;;;;;;;27.90;4.40;;;;;;;;;;5073985;28;20020;-28
2024/02/20 08:15:58;;;;;;;30.95;4.75;;;;;;;;;;5074324;28;20122;-27
2024/02/20 08:18:23;;;;;;;27.65;4.22;;;;;;;;;;5073990;28;20125;-28
2024/02/20 08:20:49;;;;;;;31.23;4.40;;;;;;;;;;5074205;28;20033;-28
2024/02/20 08:23:14;;;;;;;28.90;4.43;;;;;;;;;;5073611;28;20258;-27
2024/02/20 08:25:39;;;;;;;40.90;4.50;;;;;;;;;;5073617;28;20017;-28
2024/02/20 08:28:05;;;;;;;24.63;4.57;;;;;;;;;;5073517;28;20633;-28
2024/02/20 08:30:30;;;;;;;21.95;4.18;;;;;;;;;;5073018;28;20302;-27
2024/02/20 08:32:55;;;;;;;28.65;4.93;;;;;;;;;;5073556;28;20021;-28
2024/02/20 08:35:20;;;;;;;27.00;5.00;;;;;;;;;;5073458;28;20020;-27
2024/02/20 08:37:46;;;;;;;24.75;4.40;;;;;;;;;;5073410;28;20028;-27
2024/02/20 08:40:12;;;;;;;38.77;5.17;;;;;;;;;;5073891;28;20021;-28
2024/02/20 08:42:37;;;;;;;32.58;5.28;;;;;;;;;;5073609;28;20286;-28
2024/02/20 08:45:04;;;;;;;24.63;4.95;;;;;;;;;;5073673;28;20041;-27
2024/02/20 08:47:30;;;;;;;27.00;4.80;;;;;;;;;;5074316;28;20436;-28
2024/02/20 08:49:55;;;;;;;25.90;4.88;;;;;;;;;;5073555;28;20021;-28
2024/02/20 08:52:21;;;;;;;25.67;4.45;;;;;;;;;;5072030;28;20519;-28
2024/02/20 08:54:46;;;;;;;29.23;6.40;;;;;;;;;;5073811;28;20017;-28
2024/02/20 08:57:11;;;;;;;32.15;4.70;;;;;;;;;;5073381;28;20250;-28
2024/02/20 08:59:36;;;;;;;25.92;4.78;;;;;;;;;;5073377;28;20024;-27
2024/02/20 09:02:03;;;;;;;26.20;5.13;;;;;;;;;;5073197;28;20016;-27
2024/02/20 09:04:28;;;;;;;29.17;4.15;;;;;;;;;;5073316;28;20274;-27
2024/02/20 09:06:54;;;;;;;26.08;5.15;;;;;;;;;;5073528;28;20028;-27
2024/02/20 09:09:21;;;;;;;33.92;5.10;;;;;;;;;;5073626;28;20484;-29
2024/02/20 09:11:46;;;;;;;28.40;5.07;;;;;;;;;;5073217;28;20024;-28
2024/02/20 09:14:12;;;;;;;37.17;5.57;;;;;;;;;;5073008;28;20464;-29
2024/02/20 09:16:37;;;;;;;33.42;5.68;;;;;;;;;;5072978;28;20258;-28
2024/02/20 09:19:02;;;;;;;34.10;6.00;;;;;;;;;;5073077;28;20028;-27
2024/02/20 09:21:27;;;;;;;26.80;5.38;;;;;;;;;;5073040;28;20263;-27
2024/02/20 09:23:53;;;;;;;26.37;4.30;;;;;;;;;;5071713;28;20063;-27
2024/02/20 09:26:20;;;;;;;25.13;4.80;;;;;;;;;;5072788;28;20777;-27
2024/02/20 09:28:45;;;;;;;34.22;5.22;;;;;;;;;;5072833;28;20091;-28
2024/02/20 09:31:11;;;;;;;27.83;5.10;;;;;;;;;;5072910;28;20123;-28
2024/02/20 09:33:36;;;;;;;31.05;5.80;;;;;;;;;;5073216;28;20032;-27
2024/02/20 09:36:02;;;;;;;26.05;4.72;;;;;;;;;;5072817;28;20017;-28
2024/02/20 09:38:27;;;;;;;26.52;4.82;;;;;;;;;;5072802;28;20013;-28
2024/02/20 09:40:52;;;;;;;32.87;5.07;;;;;;;;;;5073366;28;20027;-27
2024/02/20 09:43:18;;;;;;;35.08;5.40;;;;;;;;;;5073063;28;20594;-28
2024/02/20 09:45:44;;;;;;;30.15;5.05;;;;;;;;;;5072823;28;20052;-28
2024/02/20 09:48:10;;;;;;;26.38;4.63;;;;;;;;;;5073252;28;20138;-28
2024/02/20 09:50:37;;;;;;;24.45;4.65;;;;;;;;;;5071550;28;20506;-28
2024/02/20 09:53:03;;;;;;;32.55;5.70;;;;;;;;;;5072720;28;20035;-28
2024/02/20 09:55:28;;;;;;;25.50;4.95;;;;;;;;;;5072559;28;20024;-29
2024/02/20 09:57:54;;;;;;;18.50;4.50;;;;;;;;;;5072653;28;20025;-29
2024/02/20 10:00:19;;;;;;;27.80;4.88;;;;;;;;;;5072380;28;20282;-28
2024/02/20 10:02:45;;;;;;;28.48;5.30;;;;;;;;;;5072819;28;20017;-28
2024/02/20 10:05:17;;;;;;;26.23;4.65;;;;;;;;;;5072405;28;20025;-28
2024/02/20 10:07:42;;;;;;;33.38;4.57;;;;;;;;;;5070846;28;20130;-28
2024/02/20 10:10:09;;;;;;;31.00;4.93;;;;;;;;;;5074300;28;20063;-28
2024/02/20 10:12:36;;;;;;;24.23;4.60;;;;;;;;;;5076255;28;20161;-28
2024/02/20 10:15:08;;;;;;;29.15;4.85;;;;;;;;;;5076349;28;20064;-28
2024/02/20 10:17:34;;;;;;;21.70;4.03;;;;;;;;;;5076283;28;20025;-28
2024/02/20 10:20:12;;;;;;;24.00;4.50;;;;;;;;;;5076028;28;20396;-28
2024/02/20 10:22:40;;;;;;;20.17;4.07;;;;;;;;;;5075066;28;20024;-28
2024/02/20 10:25:12;;;;;;;27.33;4.45;;;;;;;;;;5076296;28;20025;-28
2024/02/20 10:27:37;;;;;;;27.98;4.65;;;;;;;;;;5075730;28;20024;-28
2024/02/20 10:30:03;;;;;;;27.65;4.97;;;;;;;;;;5075701;28;20415;-28
2024/02/20 10:32:28;;;;;;;26.40;4.93;;;;;;;;;;5075884;28;20052;-28
2024/02/20 10:35:01;;;;;;;32.10;5.47;;;;;;;;;;5075956;28;20063;-28
2024/02/20 10:37:27;;;;;;;26.65;4.95;;;;;;;;;;5075569;28;20060;-28
2024/02/20 10:40:02;;;;;;;34.28;4.80;;;;;;;;;;5075806;28;20077;-28
2024/02/20 10:42:27;;;;;;;33.33;4.50;;;;;;;;;;5076049;28;20371;-29
2024/02/20 10:44:53;;;;;;;30.23;7.32;;;;;;;;;;5076078;28;20021;-28
2024/02/20 10:47:19;;;;;;;19.35;4.22;;;;;;;;;;5075360;28;20520;-28
2024/02/20 10:49:44;;;;;;;30.65;4.95;;;;;;;;;;5075517;28;20024;-28
2024/02/20 10:52:09;;;;;;;22.50;4.38;;;;;;;;;;5075329;28;20459;-28
2024/02/20 10:54:36;;;;;;;37.88;5.10;;;;;;;;;;5075526;28;20085;-28
2024/02/20 10:57:01;;;;;;;29.73;5.72;;;;;;;;;;5075152;28;20420;-28
2024/02/20 10:59:27;;;;;;;30.92;5.25;;;;;;;;;;5075127;28;20048;-28
2024/02/20 11:01:52;;;;;;;27.52;4.47;;;;;;;;;;5075759;28;20468;-28
2024/02/20 11:04:18;;;;;;;38.40;4.73;;;;;;;;;;5075204;28;20102;-28
2024/02/20 11:06:44;;;;;;;23.48;4.40;;;;;;;;;;5074266;28;20285;-29
2024/02/20 11:09:10;;;;;;;29.27;4.43;;;;;;;;;;5074801;28;20052;-28
2024/02/20 11:11:36;;;;;;;20.83;4.22;;;;;;;;;;5074782;28;20558;-28
2024/02/20 11:14:01;;;;;;;24.75;4.70;;;;;;;;;;5075118;28;20138;-28
2024/02/20 11:16:31;;;;;;;28.20;5.03;;;;;;;;;;5074773;28;20475;-28
2024/02/20 11:18:57;;;;;;;26.25;5.38;;;;;;;;;;5074904;28;20350;-28
2024/02/20 11:21:26;;;;;;;31.65;5.18;;;;;;;;;;5073839;28;20059;-28
2024/02/20 11:23:52;;;;;;;24.60;4.55;;;;;;;;;;5074910;28;20016;-28
2024/02/20 11:26:24;;;;;;;32.20;5.97;;;;;;;;;;5074768;28;20107;-28
2024/02/20 11:28:50;;;;;;;30.58;6.07;;;;;;;;;;5074729;28;20048;-28
2024/02/20 11:31:23;;;;;;;24.50;4.77;;;;;;;;;;5072976;28;20056;-27
2024/02/20 11:33:48;;;;;;;;;;;;;;;;;;5075044;28;20250;-27
2024/02/20 11:36:13;;;;;;;26.15;5.10;;;;;;;;;;5073432;28;19911;-27
2024/02/20 11:38:38;;;;;;;22.40;4.07;;;;;;;;;;5073767;28;20024;-27
2024/02/20 11:41:04;;;;;;;26.05;4.75;;;;;;;;;;5074586;28;20471;-28
2024/02/20 11:43:29;;;;;;;22.77;4.45;;;;;;;;;;5074841;28;20496;-27
2024/02/20 11:45:59;;;;;;;23.47;4.63;;;;;;;;;;5074862;28;20095;-27
2024/02/20 11:48:24;;;;;;;27.40;4.75;;;;;;;;;;5074376;28;20278;-28
2024/02/20 11:50:53;;;;;;;29.35;4.78;;;;;;;;;;5074331;28;20020;-27
2024/02/20 11:53:18;;;;;;;25.75;4.45;;;;;;;;;;5074062;28;20100;-28
2024/02/20 11:55:46;;;;;;;24.87;4.27;;;;;;;;;;5074007;28;20048;-28
2024/02/20 11:58:15;;;;;;;26.40;4.57;;;;;;;;;;5074133;28;20710;-28
2024/02/20 12:00:41;;;;;;;27.23;5.25;;;;;;;;;;5072657;28;20460;-28
2024/02/20 12:03:07;;;;;;;22.75;4.40;;;;;;;;;;5073258;28;20020;-28
2024/02/20 12:05:42;;;;;;;24.15;4.47;;;;;;;;;;5072947;28;20058;-28
2024/02/20 12:08:16;;;;;;;30.88;4.97;;;;;;;;;;5073519;28;20048;-28
2024/02/20 12:10:41;;;;;;;30.40;4.40;;;;;;;;;;5074148;28;20028;-28
2024/02/20 12:13:19;;;;;;;28.60;5.10;;;;;;;;;;5072508;28;20378;-28
2024/02/20 12:15:48;;;;;;;26.63;4.30;;;;;;;;;;5074343;28;20024;-28
2024/02/20 12:18:22;;;;;;;29.63;4.47;;;;;;;;;;5073935;28;20048;-28
2024/02/20 12:20:47;;;;;;;31.35;4.68;;;;;;;;;;5073644;28;20016;-28
2024/02/20 12:23:18;;;;;;;33.87;4.47;;;;;;;;;;5073557;28;20020;-28
2024/02/20 12:25:43;;;;;;;27.77;4.30;;;;;;;;;;5073851;28;20255;-28
2024/02/20 12:28:09;;;;;;;22.42;4.07;;;;;;;;;;5073413;28;20092;-28
2024/02/20 12:30:35;;;;;;;23.67;4.45;;;;;;;;;;5073608;28;20016;-28
2024/02/20 12:33:00;;;;;;;29.33;4.30;;;;;;;;;;5072997;28;20380;-28
2024/02/20 12:35:25;;;;;;;29.70;4.03;;;;;;;;;;5073978;28;20027;-28
2024/02/20 12:37:50;;;;;;;24.53;4.17;;;;;;;;;;5073250;28;20265;-28
2024/02/20 12:40:18;;;;;;;23.63;4.03;;;;;;;;;;5073827;28;20368;-28
2024/02/20 12:42:43;;;;;;;24.73;3.85;;;;;;;;;;5073534;28;20622;-28
2024/02/20 12:45:09;;;;;;;26.80;4.47;;;;;;;;;;5073308;28;20020;-27
2024/02/20 12:47:34;;;;;;;28.83;5.82;;;;;;;;;;5073380;28;20278;-28
2024/02/20 12:50:00;;;;;;;26.57;4.53;;;;;;;;;;5073229;28;20104;-29
2024/02/20 12:52:26;;;;;;;25.00;4.40;;;;;;;;;;5073522;28;20329;-28
2024/02/20 12:54:53;;;;;;;21.67;4.05;;;;;;;;;;5073753;28;20087;-27
2024/02/20 12:57:18;;;;;;;22.35;4.40;;;;;;;;;;5073134;28;20384;-28
2024/02/20 12:59:44;;;;;;;24.47;4.33;;;;;;;;;;5073721;28;20027;-27
2024/02/20 13:02:09;;;;;;;21.77;4.17;;;;;;;;;;5073225;28;20052;-28
2024/02/20 13:04:34;;;;;;;23.35;4.25;;;;;;;;;;5073451;28;20316;-27
2024/02/20 13:07:00;;;;;;;23.52;4.22;;;;;;;;;;5072956;28;20044;-28
2024/02/20 13:09:25;;;;;;;18.13;4.25;;;;;;;;;;5072829;28;20041;-28
2024/02/20 13:11:51;;;;;;;23.58;3.92;;;;;;;;;;5073237;28;20480;-28
2024/02/20 13:14:16;;;;;;;28.67;4.75;;;;;;;;;;5073336;28;20016;-27
2024/02/20 13:16:45;;;;;;;23.00;3.92;;;;;;;;;;5072970;28;20486;-27
2024/02/20 13:19:10;;;;;;;22.23;4.10;;;;;;;;;;5073180;28;20441;-28
2024/02/20 13:21:38;;;;;;;23.42;4.00;;;;;;;;;;5073255;28;20031;-28
2024/02/20 13:24:03;;;;;;;20.63;3.85;;;;;;;;;;5073303;28;20095;-28
2024/02/20 13:26:28;;;;;;;21.58;4.47;;;;;;;;;;5073333;28;20112;-28
2024/02/20 13:28:54;;;;;;;23.17;4.30;;;;;;;;;;5073332;28;20048;-28
2024/02/20 13:31:19;;;;;;;19.40;4.37;;;;;;;;;;5072645;28;20460;-28
2024/02/20 13:33:44;;;;;;;25.27;4.25;;;;;;;;;;5070476;28;20024;-28
2024/02/20 13:36:09;;;;;;;19.23;3.90;;;;;;;;;;5071348;28;20426;-28
2024/02/20 13:38:40;;;;;;;22.25;3.85;;;;;;;;;;5072710;28;20262;-28
2024/02/20 13:41:06;;;;;;;23.77;4.38;;;;;;;;;;5071415;28;20024;-28
2024/02/20 13:43:31;;;;;;;24.73;4.57;;;;;;;;;;5072401;28;20016;-29
2024/02/20 13:45:58;;;;;;;24.07;4.40;;;;;;;;;;5074830;28;20031;-28
2024/02/20 13:48:23;;;;;;;18.80;5.05;;;;;;;;;;5076243;28;20024;-28
2024/02/20 13:50:49;;;;;;;25.70;6.05;;;;;;;;;;5074564;28;20362;-29
2024/02/20 13:53:15;;;;;;;25.05;4.93;;;;;;;;;;5075722;28;20096;-29
2024/02/20 13:55:41;;;;;;;19.50;4.22;;;;;;;;;;5075751;28;20044;-29
2024/02/20 13:58:06;;;;;;;22.15;5.65;;;;;;;;;;5075870;28;20119;-29
2024/02/20 14:00:31;;;;;;;26.47;5.57;;;;;;;;;;5076095;28;20016;-29
2024/02/20 14:02:57;;;;;;;22.93;4.90;;;;;;;;;;5075352;28;20734;-29
2024/02/20 14:05:22;;;;;;;22.63;4.85;;;;;;;;;;5076532;28;20269;-28
2024/02/20 14:07:47;;;;;;;26.40;5.50;;;;;;;;;;5075191;28;20094;-29
2024/02/20 14:10:12;;;;;;;24.40;5.20;;;;;;;;;;5076028;28;20291;-29
2024/02/20 14:12:37;;;;;;;24.03;5.43;;;;;;;;;;5076549;28;20020;-29
2024/02/20 14:15:03;;;;;;;20.80;4.83;;;;;;;;;;5076084;28;20282;-28
2024/02/20 14:17:28;;;;;;;22.38;4.60;;;;;;;;;;5075095;28;20324;-34
2024/02/20 14:19:53;;;;;;;25.88;5.88;;;;;;;;;;5076022;28;20025;-28
2024/02/20 14:22:19;;;;;;;27.70;5.63;;;;;;;;;;5076023;28;20044;-28